Terminal Aerodrome Forecast
Issued by NWS New Orleans/Baton Rouge, LA

Home | Current Version | Previous Version | Text Only | Print | Product List | Glossary On
Versions: 1 2 3 4 5 6 7 8 9 10 11 12 13 14 15 16 17 18 19 20 21 22 23 24 25 26 27 28
567
FTUS44 KLIX 241123
TAFNEW
TAF
KNEW 241123Z 2412/2512 24006KT P6SM SHRA SCT035 BKN120
      TEMPO 2412/2414 2SM TSRA BKN025CB
     FM241500 25006KT P6SM SCT025 BKN045
      TEMPO 2419/2423 2SM TSRA OVC025CB
     FM250000 VRB04KT P6SM BKN110
     FM251000 33005KT P6SM BKN020=

USA.gov is the U.S. government's official web portal to all federal, state and local government web resources and services.